Time;durP1;ratioP1;P1;durP2;ratioP2;P2;SDS_P1;SDS_P2;PMS_P1;PMS_P2;Temp;Humidity;BMP_temperature;BMP_pressure;BME280_temperature;BME280_humidity;BME280_pressure;Samples;Min_cycle;Max_cycle;Signal;HPM_P1;HPM_P2
2023/04/05 00:00:55;;;;;;;;;;;;;;;;;;5069991;28;19928;-40
2023/04/05 00:03:21;;;;;;;;;;;;;;;;;;5069913;28;19920;-40
2023/04/05 00:05:48;;;;;;;;;;;;;;;;;;5069237;28;19923;-40
2023/04/05 00:08:25;;;;;;;;;;;;;;;;;;5071123;28;19916;-40
2023/04/05 00:10:52;;;;;;;;;;;;;;;;;;5070690;28;19967;-40
2023/04/05 00:13:19;;;;;;;;;;;;;;;;;;5068849;28;20374;-40
2023/04/05 00:15:45;;;;;;;;;;;;;;;;;;5070164;28;20645;-40
2023/04/05 00:18:20;;;;;;;;;;;;;;;;;;5069993;28;19948;-40
2023/04/05 00:20:47;;;;;;;;;;;;;;;;;;5071732;28;19912;-41
2023/04/05 00:23:15;;;;;;;;;;;;;;;;;;5068440;28;20026;-40
2023/04/05 00:25:45;;;;;;;;;;;;;;;;;;5069232;28;20306;-41
2023/04/05 00:28:12;;;;;;;;;;;;;;;;;;5068238;28;19917;-41
2023/04/05 00:30:38;;;;;;;;;;;;;;;;;;5068288;28;19966;-41
2023/04/05 00:33:05;;;;;;;;;;;;;;;;;;5069826;28;20008;-40
2023/04/05 00:35:31;;;;;;;;;;;;;;;;;;5069263;28;19916;-41
2023/04/05 00:37:58;;;;;;;;;;;;;;;;;;5071026;28;19962;-41
2023/04/05 00:40:24;;;;;;;;;;;;;;;;;;5070083;28;20290;-41
2023/04/05 00:42:51;;;;;;;;;;;;;;;;;;5066953;28;20011;-42
2023/04/05 00:45:17;;;;;;;;;;;;;;;;;;5070562;28;19935;-39
2023/04/05 00:47:43;;;;;;;;;;;;;;;;;;5069330;28;19916;-39
2023/04/05 00:50:13;;;;;;;;;;;;;;;;;;5070666;28;20406;-39
2023/04/05 00:52:42;;;;;;;;;;;;;;;;;;5070577;28;19917;-39
2023/04/05 00:55:09;;;;;;;;;;;;;;;;;;5070782;28;19951;-40
2023/04/05 00:57:37;;;;;;;;;;;;;;;;;;5070850;28;19920;-40
2023/04/05 01:00:08;;;;;;;;;;;;;;;;;;5070746;28;20361;-39
2023/04/05 01:02:38;;;;;;;;;;;;;;;;;;5070784;28;19999;-39
2023/04/05 01:05:04;;;;;;;;;;;;;;;;;;5070577;28;20317;-39
2023/04/05 01:07:30;;;;;;;;;;;;;;;;;;5070851;28;19917;-39
2023/04/05 01:09:57;;;;;;;;;;;;;;;;;;5084753;28;19923;-39
2023/04/05 01:12:23;;;;;;;;;;;;;;;;;;5069803;28;19912;-40
2023/04/05 01:14:50;;;;;;;;;;;;;;;;;;5069509;28;19932;-39
2023/04/05 01:17:21;;;;;;;;;;;;;;;;;;5072054;28;19920;-39
2023/04/05 01:19:47;;;;;;;;;;;;;;;;;;5073243;28;20030;-39
2023/04/05 01:22:13;;;;;;;;;;;;;;;;;;5073102;28;19931;-39
2023/04/05 01:24:40;;;;;;;;;;;;;;;;;;5073234;28;20023;-39
2023/04/05 01:27:06;;;;;;;;;;;;;;;;;;5072347;28;20004;-40
2023/04/05 01:29:33;;;;;;;;;;;;;;;;;;5072128;28;20025;-39
2023/04/05 01:32:00;;;;;;;;;;;;;;;;;;5088089;28;19943;-39
2023/04/05 01:34:27;;;;;;;;;;;;;;;;;;5072250;28;19991;-39
2023/04/05 01:36:53;;;;;;;;;;;;;;;;;;5066572;28;19916;-39
2023/04/05 01:39:20;;;;;;;;;;;;;;;;;;5068977;28;19913;-42
2023/04/05 01:41:46;;;;;;;;;;;;;;;;;;5064521;28;20435;-40
2023/04/05 01:44:13;;;;;;;;;;;;;;;;;;5061376;28;19925;-41
2023/04/05 01:46:39;;;;;;;;;;;;;;;;;;5064520;28;19974;-41
2023/04/05 01:51:41;;;;;;;;;;;;;;;;;;5038771;28;19978;-40
2023/04/05 01:54:08;;;;;;;;;;;;;;;;;;5026672;28;20426;-37
2023/04/05 01:56:34;;;;;;;;;;;;;;;;;;5023227;28;19917;-39
2023/04/05 01:59:01;;;;;;;;;;;;;;;;;;5024570;28;20374;-40
2023/04/05 02:01:27;;;;;;;;;;;;;;;;;;5021304;28;19956;-40
2023/04/05 02:03:54;;;;;;;;;;;;;;;;;;5013772;28;19947;-41
2023/04/05 02:06:20;;;;;;;;;;;;;;;;;;5028846;28;19921;-39
2023/04/05 02:08:47;;;;;;;;;;;;;;;;;;5013731;28;20334;-38
2023/04/05 02:11:13;;;;;;;;;;;;;;;;;;5013633;28;20662;-36
2023/04/05 02:13:39;;;;;;;;;;;;;;;;;;5029059;28;20355;-37
2023/04/05 02:16:06;;;;;;;;;;;;;;;;;;5014505;28;19948;-40
2023/04/05 02:18:32;;;;;;;;;;;;;;;;;;5014519;28;19960;-36
2023/04/05 02:20:59;;;;;;;;;;;;;;;;;;5014319;28;19924;-41
2023/04/05 02:23:26;;;;;;;;;;;;;;;;;;5014629;28;19921;-38
2023/04/05 02:25:53;;;;;;;;;;;;;;;;;;5014689;28;19918;-41
2023/04/05 02:28:19;;;;;;;;;;;;;;;;;;5013900;28;19917;-39
2023/04/05 02:30:46;;;;;;;;;;;;;;;;;;5014517;28;20379;-37
2023/04/05 02:33:12;;;;;;;;;;;;;;;;;;5014546;28;19920;-39
2023/04/05 02:35:38;;;;;;;;;;;;;;;;;;5029566;28;20346;-38
2023/04/05 02:38:05;;;;;;;;;;;;;;;;;;5014427;28;19917;-36
2023/04/05 02:40:32;;;;;;;;;;;;;;;;;;5014340;28;20020;-36
2023/04/05 02:42:58;;;;;;;;;;;;;;;;;;5014252;28;20333;-38
2023/04/05 02:45:26;;;;;;;;;;;;;;;;;;5014286;28;20394;-38
2023/04/05 02:47:53;;;;;;;;;;;;;;;;;;5014225;28;19920;-38
2023/04/05 02:50:19;;;;;;;;;;;;;;;;;;5013971;28;19917;-34
2023/04/05 02:52:49;;;;;;;;;;;;;;;;;;5014096;28;19922;-38
2023/04/05 02:55:15;;;;;;;;;;;;;;;;;;5014065;28;20004;-37
2023/04/05 02:57:42;;;;;;;;;;;;;;;;;;5014077;28;20330;-37
2023/04/05 03:00:09;;;;;;;;;;;;;;;;;;5013893;28;19925;-37
2023/04/05 03:02:36;;;;;;;;;;;;;;;;;;5013982;28;19917;-34
2023/04/05 03:05:03;;;;;;;;;;;;;;;;;;5013881;28;20398;-39
2023/04/05 03:07:31;;;;;;;;;;;;;;;;;;5013873;28;19921;-37
2023/04/05 03:09:58;;;;;;;;;;;;;;;;;;5013732;28;19917;-37
2023/04/05 03:12:24;;;;;;;;;;;;;;;;;;5013777;28;19921;-34
2023/04/05 03:14:51;;;;;;;;;;;;;;;;;;5013713;28;19917;-36
2023/04/05 03:17:17;;;;;;;;;;;;;;;;;;5013705;28;20406;-38
2023/04/05 03:19:44;;;;;;;;;;;;;;;;;;5013535;28;19924;-35
2023/04/05 03:22:10;;;;;;;;;;;;;;;;;;5013632;28;20481;-37
2023/04/05 03:24:37;;;;;;;;;;;;;;;;;;5013467;28;19921;-37
2023/04/05 03:27:04;;;;;;;;;;;;;;;;;;5028648;28;19957;-38
2023/04/05 03:29:31;;;;;;;;;;;;;;;;;;5013309;28;19918;-35
2023/04/05 03:31:58;;;;;;;;;;;;;;;;;;5013400;28;20322;-38
2023/04/05 03:34:27;;;;;;;;;;;;;;;;;;5013346;28;19913;-37
2023/04/05 03:36:54;;;;;;;;;;;;;;;;;;5013310;28;19914;-35
2023/04/05 03:39:21;;;;;;;;;;;;;;;;;;5012623;28;19914;-36
2023/04/05 03:41:47;;;;;;;;;;;;;;;;;;5012971;28;19920;-38
2023/04/05 03:44:13;;;;;;;;;;;;;;;;;;5013162;28;19928;-36
2023/04/05 03:46:41;;;;;;;;;;;;;;;;;;5013189;28;19932;-39
2023/04/05 03:49:07;;;;;;;;;;;;;;;;;;5013090;28;19972;-36
2023/04/05 03:51:34;;;;;;;;;;;;;;;;;;5012967;28;19921;-37
2023/04/05 03:54:00;;;;;;;;;;;;;;;;;;5013041;28;19983;-37
2023/04/05 03:56:27;;;;;;;;;;;;;;;;;;5013003;28;20012;-39
2023/04/05 03:58:53;;;;;;;;;;;;;;;;;;5012943;28;19917;-38
2023/04/05 04:01:23;;;;;;;;;;;;;;;;;;5012834;28;20422;-38
2023/04/05 04:03:49;;;;;;;;;;;;;;;;;;5012850;28;20452;-37
2023/04/05 04:06:17;;;;;;;;;;;;;;;;;;5012828;28;19918;-39
2023/04/05 04:08:43;;;;;;;;;;;;;;;;;;5012793;28;20333;-34
2023/04/05 04:11:10;;;;;;;;;;;;;;;;;;5012726;28;19913;-39
2023/04/05 04:13:37;;;;;;;;;;;;;;;;;;5012765;28;19964;-38
2023/04/05 04:16:03;;;;;;;;;;;;;;;;;;5012717;28;20405;-38
2023/04/05 04:18:29;;;;;;;;;;;;;;;;;;5012630;28;20291;-37
2023/04/05 04:20:57;;;;;;;;;;;;;;;;;;5027649;28;19917;-34
2023/04/05 04:23:26;;;;;;;;;;;;;;;;;;5012502;28;19917;-38
2023/04/05 04:25:53;;;;;;;;;;;;;;;;;;5012650;28;19939;-36
2023/04/05 04:28:20;;;;;;;;;;;;;;;;;;5012518;28;19921;-39
2023/04/05 04:30:46;;;;;;;;;;;;;;;;;;5012413;28;19921;-38
2023/04/05 04:33:12;;;;;;;;;;;;;;;;;;5012524;28;20360;-36
2023/04/05 04:35:39;;;;;;;;;;;;;;;;;;5012450;28;20000;-38
2023/04/05 04:38:06;;;;;;;;;;;;;;;;;;5012477;28;19921;-38
2023/04/05 04:40:38;;;;;;;;;;;;;;;;;;5012346;28;20391;-38
2023/04/05 04:43:04;;;;;;;;;;;;;;;;;;5012381;28;19944;-35
2023/04/05 04:45:36;;;;;;;;;;;;;;;;;;5012304;28;19917;-38
2023/04/05 04:48:03;;;;;;;;;;;;;;;;;;5012364;28;19913;-38
2023/04/05 04:50:30;;;;;;;;;;;;;;;;;;5012256;28;19968;-37
2023/04/05 04:52:56;;;;;;;;;;;;;;;;;;5016143;28;20350;-39
2023/04/05 04:55:26;;;;;;;;;;;;;;;;;;5016373;28;20500;-38
2023/04/05 04:57:52;;;;;;;;;;;;;;;;;;5016309;28;19913;-37
2023/04/05 05:00:19;;;;;;;;;;;;;;;;;;5016443;28;19965;-38
2023/04/05 05:02:46;;;;;;;;;;;;;;;;;;5016189;28;19924;-36
2023/04/05 05:05:12;;;;;;;;;;;;;;;;;;5016145;28;20399;-35
2023/04/05 05:07:40;;;;;;;;;;;;;;;;;;5016057;28;19925;-35
2023/04/05 05:10:07;;;;;;;;;;;;;;;;;;5015993;28;20264;-35
2023/04/05 05:12:33;;;;;;;;;;;;;;;;;;5016040;28;19917;-36
2023/04/05 05:14:59;;;;;;;;;;;;;;;;;;5015973;28;19918;-37
2023/04/05 05:17:26;;;;;;;;;;;;;;;;;;5015903;28;19921;-39
2023/04/05 05:19:52;;;;;;;;;;;;;;;;;;5015825;28;19963;-37
2023/04/05 05:22:19;;;;;;;;;;;;;;;;;;5015853;28;19985;-36
2023/04/05 05:24:46;;;;;;;;;;;;;;;;;;5015734;28;19928;-38
2023/04/05 05:27:13;;;;;;;;;;;;;;;;;;5015751;28;19971;-38
2023/04/05 05:29:39;;;;;;;;;;;;;;;;;;5015587;28;19940;-35
2023/04/05 05:32:06;;;;;;;;;;;;;;;;;;5015650;28;19922;-41
2023/04/05 05:34:33;;;;;;;;;;;;;;;;;;5015641;28;19929;-36
2023/04/05 05:36:59;;;;;;;;;;;;;;;;;;5015641;28;19960;-39
2023/04/05 05:39:26;;;;;;;;;;;;;;;;;;5015517;28;19985;-39
2023/04/05 05:41:52;;;;;;;;;;;;;;;;;;5015480;28;19924;-39
2023/04/05 05:44:19;;;;;;;;;;;;;;;;;;5015396;28;19921;-39
2023/04/05 05:46:45;;;;;;;;;;;;;;;;;;5015418;28;20340;-38
2023/04/05 05:49:12;;;;;;;;;;;;;;;;;;5015243;28;20364;-38
2023/04/05 05:51:38;;;;;;;;;;;;;;;;;;5015153;28;20299;-37
2023/04/05 05:54:05;;;;;;;;;;;;;;;;;;5015273;28;19937;-39
2023/04/05 05:56:31;;;;;;;;;;;;;;;;;;5015235;28;19921;-40
2023/04/05 05:58:58;;;;;;;;;;;;;;;;;;5015059;28;19959;-36
2023/04/05 06:01:26;;;;;;;;;;;;;;;;;;5019544;28;19913;-37
2023/04/05 06:03:53;;;;;;;;;;;;;;;;;;5033797;28;19917;-36
2023/04/05 06:06:19;;;;;;;;;;;;;;;;;;5034753;28;20386;-36
2023/04/05 06:08:46;;;;;;;;;;;;;;;;;;5034602;28;20031;-38
2023/04/05 06:11:12;;;;;;;;;;;;;;;;;;5034663;28;19917;-38
2023/04/05 06:13:39;;;;;;;;;;;;;;;;;;5034683;28;19917;-38
2023/04/05 06:16:05;;;;;;;;;;;;;;;;;;5034644;28;20028;-36
2023/04/05 06:18:31;;;;;;;;;;;;;;;;;;5034548;28;19917;-38
2023/04/05 06:20:58;;;;;;;;;;;;;;;;;;5034396;28;19913;-38
2023/04/05 06:23:24;;;;;;;;;;;;;;;;;;5034422;28;19967;-35
2023/04/05 06:25:51;;;;;;;;;;;;;;;;;;5034478;28;20012;-36
2023/04/05 06:28:17;;;;;;;;;;;;;;;;;;5034399;28;20013;-34
2023/04/05 06:30:44;;;;;;;;;;;;;;;;;;5034507;28;20333;-33
2023/04/05 06:33:10;;;;;;;;;;;;;;;;;;5034281;28;20409;-39
2023/04/05 06:35:36;;;;;;;;;;;;;;;;;;5034570;28;20004;-34
2023/04/05 06:38:03;;;;;;;;;;;;;;;;;;5033947;28;19913;-39
2023/04/05 06:40:29;;;;;;;;;;;;;;;;;;5034051;28;20367;-35
2023/04/05 06:42:56;;;;;;;;;;;;;;;;;;5034004;28;19924;-37
2023/04/05 06:45:22;;;;;;;;;;;;;;;;;;5034074;28;19921;-38
2023/04/05 06:47:48;;;;;;;;;;;;;;;;;;5034003;28;19955;-34
2023/04/05 06:50:15;;;;;;;;;;;;;;;;;;5033741;28;19921;-35
2023/04/05 06:52:41;;;;;;;;;;;;;;;;;;5033941;28;20367;-39
2023/04/05 06:55:08;;;;;;;;;;;;;;;;;;5034175;28;19917;-39
2023/04/05 06:57:34;;;;;;;;;;;;;;;;;;5033816;28;19995;-38
2023/04/05 07:00:01;;;;;;;;;;;;;;;;;;5033690;28;20003;-38
2023/04/05 07:02:27;;;;;;;;;;;;;;;;;;5033658;28;19913;-38
2023/04/05 07:04:59;;;;;;;;;;;;;;;;;;5033619;28;19928;-35
2023/04/05 07:07:25;;;;;;;;;;;;;;;;;;5033831;28;19956;-36
2023/04/05 07:09:52;;;;;;;;;;;;;;;;;;5033516;28;20334;-37
2023/04/05 07:12:18;;;;;;;;;;;;;;;;;;5033414;28;19917;-36
2023/04/05 07:14:45;;;;;;;;;;;;;;;;;;5033302;28;19913;-35
2023/04/05 07:17:11;;;;;;;;;;;;;;;;;;5033426;28;20042;-36
2023/04/05 07:19:37;;;;;;;;;;;;;;;;;;5033365;28;20375;-35
2023/04/05 07:22:04;;;;;;;;;;;;;;;;;;5033329;28;19986;-37
2023/04/05 07:24:30;;;;;;;;;;;;;;;;;;5033231;28;19921;-35
2023/04/05 07:26:57;;;;;;;;;;;;;;;;;;5033221;28;19924;-36
2023/04/05 07:29:23;;;;;;;;;;;;;;;;;;5033017;28;19923;-37
2023/04/05 07:31:50;;;;;;;;;;;;;;;;;;5033200;28;19921;-36
2023/04/05 07:34:16;;;;;;;;;;;;;;;;;;5033005;28;19918;-36
2023/04/05 07:36:43;;;;;;;;;;;;;;;;;;5033122;28;19913;-38
2023/04/05 07:39:09;;;;;;;;;;;;;;;;;;5032999;28;19917;-37
2023/04/05 07:41:36;;;;;;;;;;;;;;;;;;5033027;28;19917;-38
2023/04/05 07:44:03;;;;;;;;;;;;;;;;;;5032862;28;20055;-38
2023/04/05 07:46:29;;;;;;;;;;;;;;;;;;5032862;28;20397;-38
2023/04/05 07:48:57;;;;;;;;;;;;;;;;;;5031378;28;19917;-39
2023/04/05 07:51:23;;;;;;;;;;;;;;;;;;5032463;28;19921;-34
2023/04/05 07:53:50;;;;;;;;;;;;;;;;;;5032804;28;19917;-38
2023/04/05 07:56:16;;;;;;;;;;;;;;;;;;5032736;28;19992;-36
2023/04/05 07:58:42;;;;;;;;;;;;;;;;;;5032563;28;19971;-34
2023/04/05 08:01:09;;;;;;;;;;;;;;;;;;5032555;28;19926;-35
2023/04/05 08:03:35;;;;;;;;;;;;;;;;;;5032556;28;19920;-37
2023/04/05 08:06:02;;;;;;;;;;;;;;;;;;5032579;28;19917;-38
2023/04/05 08:08:28;;;;;;;;;;;;;;;;;;5032553;28;19921;-37
2023/04/05 08:10:55;;;;;;;;;;;;;;;;;;5032360;28;20354;-40
2023/04/05 08:13:21;;;;;;;;;;;;;;;;;;5032526;28;19909;-37
2023/04/05 08:15:47;;;;;;;;;;;;;;;;;;5032438;28;19920;-37
2023/04/05 08:18:14;;;;;;;;;;;;;;;;;;5032424;28;19948;-35
2023/04/05 08:20:40;;;;;;;;;;;;;;;;;;5032252;28;19913;-38
2023/04/05 08:23:07;;;;;;;;;;;;;;;;;;5032168;28;19910;-37
2023/04/05 08:25:33;;;;;;;;;;;;;;;;;;5031848;28;19913;-40
2023/04/05 08:27:59;;;;;;;;;;;;;;;;;;5032206;28;20054;-35
2023/04/05 08:30:26;;;;;;;;;;;;;;;;;;5032190;28;19913;-36
2023/04/05 08:32:52;;;;;;;;;;;;;;;;;;5032205;28;19912;-35
2023/04/05 08:35:19;;;;;;;;;;;;;;;;;;5032132;28;20378;-36
2023/04/05 08:37:47;;;;;;;;;;;;;;;;;;5032213;28;19921;-39
2023/04/05 08:40:13;;;;;;;;;;;;;;;;;;5032216;28;20023;-37
2023/04/05 08:42:40;;;;;;;;;;;;;;;;;;5032048;28;19913;-38
2023/04/05 08:45:06;;;;;;;;;;;;;;;;;;5031993;28;20290;-36
2023/04/05 08:47:32;;;;;;;;;;;;;;;;;;5031986;28;19964;-36
2023/04/05 08:49:59;;;;;;;;;;;;;;;;;;5031780;28;19925;-37
2023/04/05 08:52:25;;;;;;;;;;;;;;;;;;5031954;28;20435;-37
2023/04/05 08:54:53;;;;;;;;;;;;;;;;;;5031993;28;19913;-34
2023/04/05 08:57:19;;;;;;;;;;;;;;;;;;5031897;28;20263;-35
2023/04/05 08:59:45;;;;;;;;;;;;;;;;;;5031758;28;19917;-39
2023/04/05 09:02:12;;;;;;;;;;;;;;;;;;5031871;28;19909;-36
2023/04/05 09:04:39;;;;;;;;;;;;;;;;;;5031870;28;20375;-35
2023/04/05 09:07:05;;;;;;;;;;;;;;;;;;5031914;28;19924;-35
2023/04/05 09:09:33;;;;;;;;;;;;;;;;;;5031759;28;19913;-37
2023/04/05 09:12:00;;;;;;;;;;;;;;;;;;5031734;28;19960;-35
2023/04/05 09:14:26;;;;;;;;;;;;;;;;;;5031821;28;19944;-35
2023/04/05 09:16:52;;;;;;;;;;;;;;;;;;5031824;28;20328;-37
2023/04/05 09:19:19;;;;;;;;;;;;;;;;;;5031665;28;19909;-40
2023/04/05 09:21:45;;;;;;;;;;;;;;;;;;5031700;28;19917;-36
2023/04/05 09:24:12;;;;;;;;;;;;;;;;;;5031658;28;19917;-39
2023/04/05 09:26:38;;;;;;;;;;;;;;;;;;5031703;28;20294;-35
2023/04/05 09:29:04;;;;;;;;;;;;;;;;;;5031221;28;19909;-37
2023/04/05 09:31:31;;;;;;;;;;;;;;;;;;5031573;28;19910;-35
2023/04/05 09:33:58;;;;;;;;;;;;;;;;;;5031563;28;20394;-38
2023/04/05 09:36:25;;;;;;;;;;;;;;;;;;5031433;28;19960;-37
2023/04/05 09:38:51;;;;;;;;;;;;;;;;;;5034904;28;20005;-36
2023/04/05 09:41:17;;;;;;;;;;;;;;;;;;5031857;28;19921;-38
2023/04/05 09:43:44;;;;;;;;;;;;;;;;;;5025543;28;20457;-37
2023/04/05 09:46:10;;;;;;;;;;;;;;;;;;5027768;28;19964;-38
2023/04/05 09:48:37;;;;;;;;;;;;;;;;;;5034963;28;20004;-39
2023/04/05 09:51:03;;;;;;;;;;;;;;;;;;5034883;28;20353;-36
2023/04/05 09:53:30;;;;;;;;;;;;;;;;;;5035062;28;19975;-38
2023/04/05 09:55:56;;;;;;;;;;;;;;;;;;5035037;28;20293;-34
2023/04/05 09:58:23;;;;;;;;;;;;;;;;;;5034975;28;19917;-38
2023/04/05 10:00:53;;;;;;;;;;;;;;;;;;5034874;28;19960;-35
2023/04/05 10:03:19;;;;;;;;;;;;;;;;;;5031268;28;19948;-37
2023/04/05 10:05:47;;;;;;;;;;;;;;;;;;5030658;28;19951;-37
2023/04/05 10:08:14;;;;;;;;;;;;;;;;;;5023948;28;20303;-43
2023/04/05 10:10:40;;;;;;;;;;;;;;;;;;5022058;28;19917;-38
2023/04/05 10:13:07;;;;;;;;;;;;;;;;;;5022610;28;21462;-43
2023/04/05 10:15:33;;;;;;;;;;;;;;;;;;5031236;28;19920;-42
2023/04/05 10:18:00;;;;;;;;;;;;;;;;;;5034104;28;19968;-42
2023/04/05 10:20:26;;;;;;;;;;;;;;;;;;5034156;28;19914;-42
2023/04/05 10:22:53;;;;;;;;;;;;;;;;;;5031678;28;19995;-41
2023/04/05 10:25:20;;;;;;;;;;;;;;;;;;5032759;28;19958;-42
2023/04/05 10:27:47;;;;;;;;;;;;;;;;;;5028409;28;19921;-44
2023/04/05 10:30:13;;;;;;;;;;;;;;;;;;5031544;28;19913;-43
2023/04/05 10:32:40;;;;;;;;;;;;;;;;;;5028997;28;20000;-42
2023/04/05 10:35:06;;;;;;;;;;;;;;;;;;5027839;28;19923;-42
2023/04/05 10:37:32;;;;;;;;;;;;;;;;;;5032100;28;19913;-43
2023/04/05 10:39:59;;;;;;;;;;;;;;;;;;5032469;28;19924;-40
2023/04/05 10:42:25;;;;;;;;;;;;;;;;;;5032902;28;20287;-37
2023/04/05 10:44:54;;;;;;;;;;;;;;;;;;5031737;28;19940;-41
2023/04/05 10:47:20;;;;;;;;;;;;;;;;;;5027514;28;19913;-42
2023/04/05 10:49:47;;;;;;;;;;;;;;;;;;5031372;28;19909;-41
2023/04/05 10:52:13;;;;;;;;;;;;;;;;;;5027049;28;19918;-44
2023/04/05 10:54:40;;;;;;;;;;;;;;;;;;5023163;28;19996;-43
2023/04/05 10:57:06;;;;;;;;;;;;;;;;;;5022230;28;19943;-38
2023/04/05 10:59:33;;;;;;;;;;;;;;;;;;5019158;28;19920;-40
2023/04/05 11:01:59;;;;;;;;;;;;;;;;;;5023131;28;19949;-39
2023/04/05 11:04:26;;;;;;;;;;;;;;;;;;5023616;28;19925;-41
2023/04/05 11:06:52;;;;;;;;;;;;;;;;;;5022423;28;19917;-42
2023/04/05 11:09:22;;;;;;;;;;;;;;;;;;5023097;28;20265;-41
2023/04/05 11:11:48;;;;;;;;;;;;;;;;;;5021980;28;19910;-42
2023/04/05 11:14:15;;;;;;;;;;;;;;;;;;5023446;28;19922;-42
2023/04/05 11:16:41;;;;;;;;;;;;;;;;;;5022224;28;19913;-41
2023/04/05 11:19:07;;;;;;;;;;;;;;;;;;5020932;28;20304;-43
2023/04/05 11:21:34;;;;;;;;;;;;;;;;;;5025712;28;19924;-42
2023/04/05 11:24:01;;;;;;;;;;;;;;;;;;5022539;28;20276;-41
2023/04/05 11:26:27;;;;;;;;;;;;;;;;;;5036988;28;20011;-41
2023/04/05 11:28:54;;;;;;;;;;;;;;;;;;5022939;28;20489;-40
2023/04/05 11:31:25;;;;;;;;;;;;;;;;;;5021349;28;19913;-40
2023/04/05 11:33:51;;;;;;;;;;;;;;;;;;5021144;28;19913;-39
2023/04/05 11:36:18;;;;;;;;;;;;;;;;;;5023073;28;19917;-40
2023/04/05 11:38:44;;;;;;;;;;;;;;;;;;5021760;28;19963;-41
2023/04/05 11:41:11;;;;;;;;;;;;;;;;;;5026786;28;19913;-40
2023/04/05 11:43:37;;;;;;;;;;;;;;;;;;5032895;28;19920;-37
2023/04/05 11:46:04;;;;;;;;;;;;;;;;;;5033068;28;19920;-40
2023/04/05 11:48:31;;;;;;;;;;;;;;;;;;5033086;28;20291;-40
2023/04/05 11:50:57;;;;;;;;;;;;;;;;;;5032759;28;20326;-40
2023/04/05 11:53:23;;;;;;;;;;;;;;;;;;5032928;28;19917;-39
2023/04/05 11:55:50;;;;;;;;;;;;;;;;;;5032831;28;20375;-41
2023/04/05 11:58:16;;;;;;;;;;;;;;;;;;5032726;28;20070;-43
2023/04/05 12:00:43;;;;;;;;;;;;;;;;;;5023405;28;19918;-42
2023/04/05 12:03:09;;;;;;;;;;;;;;;;;;5012118;28;19909;-40
2023/04/05 12:05:35;;;;;;;;;;;;;;;;;;5012719;28;19924;-40
2023/04/05 12:08:02;;;;;;;;;;;;;;;;;;5012779;28;19913;-41
2023/04/05 12:10:28;;;;;;;;;;;;;;;;;;5012470;28;19910;-39
2023/04/05 12:12:54;;;;;;;;;;;;;;;;;;5012846;28;19914;-39
2023/04/05 12:15:22;;;;;;;;;;;;;;;;;;5012722;28;19920;-41
2023/04/05 12:17:48;;;;;;;;;;;;;;;;;;5012984;28;19979;-40
2023/04/05 12:20:15;;;;;;;;;;;;;;;;;;5012618;28;20322;-39
2023/04/05 12:22:41;;;;;;;;;;;;;;;;;;5012706;28;19913;-40
2023/04/05 12:25:08;;;;;;;;;;;;;;;;;;5012622;28;19968;-40
2023/04/05 12:27:34;;;;;;;;;;;;;;;;;;5012658;28;19914;-40
2023/04/05 12:30:00;;;;;;;;;;;;;;;;;;5012484;28;19918;-41
2023/04/05 12:32:27;;;;;;;;;;;;;;;;;;5012541;28;20016;-41
2023/04/05 12:34:56;;;;;;;;;;;;;;;;;;5012405;28;20000;-41
2023/04/05 12:37:23;;;;;;;;;;;;;;;;;;5012524;28;19949;-41
2023/04/05 12:39:50;;;;;;;;;;;;;;;;;;5012416;28;19937;-40
2023/04/05 12:42:16;;;;;;;;;;;;;;;;;;5012339;28;20339;-41
2023/04/05 12:44:42;;;;;;;;;;;;;;;;;;5012333;28;19957;-40
2023/04/05 12:47:09;;;;;;;;;;;;;;;;;;5012401;28;19913;-41
2023/04/05 12:49:36;;;;;;;;;;;;;;;;;;5012100;28;19959;-41
2023/04/05 12:52:02;;;;;;;;;;;;;;;;;;5012345;28;19956;-39
2023/04/05 12:54:30;;;;;;;;;;;;;;;;;;5012357;28;19914;-40
2023/04/05 12:56:57;;;;;;;;;;;;;;;;;;5012271;28;20396;-40
2023/04/05 12:59:23;;;;;;;;;;;;;;;;;;5012235;28;19929;-41
2023/04/05 13:01:50;;;;;;;;;;;;;;;;;;5027419;28;19906;-39
2023/04/05 13:04:16;;;;;;;;;;;;;;;;;;5012224;28;19921;-40
2023/04/05 13:06:43;;;;;;;;;;;;;;;;;;5012281;28;19917;-41
2023/04/05 13:09:09;;;;;;;;;;;;;;;;;;5012101;28;19996;-41
2023/04/05 13:11:35;;;;;;;;;;;;;;;;;;5012253;28;19917;-41
2023/04/05 13:14:02;;;;;;;;;;;;;;;;;;5016061;28;19916;-40
2023/04/05 13:16:28;;;;;;;;;;;;;;;;;;5016098;28;20367;-40
2023/04/05 13:18:55;;;;;;;;;;;;;;;;;;5016014;28;19914;-41
2023/04/05 13:21:21;;;;;;;;;;;;;;;;;;5015935;28;19916;-40
2023/04/05 13:23:47;;;;;;;;;;;;;;;;;;5015879;28;19924;-40
2023/04/05 13:26:14;;;;;;;;;;;;;;;;;;5015862;28;19917;-40
2023/04/05 13:28:40;;;;;;;;;;;;;;;;;;5015782;28;19913;-41
2023/04/05 13:31:07;;;;;;;;;;;;;;;;;;5015798;28;19964;-41
2023/04/05 13:33:33;;;;;;;;;;;;;;;;;;5015721;28;19914;-41
2023/04/05 13:36:00;;;;;;;;;;;;;;;;;;5015712;28;19918;-40
2023/04/05 13:38:26;;;;;;;;;;;;;;;;;;5030768;28;19918;-40
2023/04/05 13:40:52;;;;;;;;;;;;;;;;;;5015630;28;19917;-40
2023/04/05 13:43:19;;;;;;;;;;;;;;;;;;5015553;28;19946;-40
2023/04/05 13:45:45;;;;;;;;;;;;;;;;;;5015424;28;20371;-41
2023/04/05 13:48:12;;;;;;;;;;;;;;;;;;5015486;28;19909;-41
2023/04/05 13:50:38;;;;;;;;;;;;;;;;;;5015178;28;19929;-41
2023/04/05 13:53:04;;;;;;;;;;;;;;;;;;5015428;28;20000;-39
2023/04/05 13:55:31;;;;;;;;;;;;;;;;;;5015377;28;19980;-41
2023/04/05 13:57:57;;;;;;;;;;;;;;;;;;5015119;28;19921;-37
2023/04/05 14:00:24;;;;;;;;;;;;;;;;;;5015277;28;19920;-40
2023/04/05 14:02:50;;;;;;;;;;;;;;;;;;5015168;28;20385;-41
2023/04/05 14:05:17;;;;;;;;;;;;;;;;;;5015135;28;19921;-41
2023/04/05 14:07:43;;;;;;;;;;;;;;;;;;5015189;28;19991;-40
2023/04/05 14:10:10;;;;;;;;;;;;;;;;;;5014995;28;20411;-41
2023/04/05 14:12:37;;;;;;;;;;;;;;;;;;5015006;28;19913;-40
2023/04/05 14:15:04;;;;;;;;;;;;;;;;;;5015303;28;19914;-40
2023/04/05 14:17:30;;;;;;;;;;;;;;;;;;5014891;28;19910;-41
2023/04/05 14:19:56;;;;;;;;;;;;;;;;;;5014780;28;19920;-40
2023/04/05 14:22:23;;;;;;;;;;;;;;;;;;5014901;28;19932;-40
2023/04/05 14:24:49;;;;;;;;;;;;;;;;;;5028976;28;20350;-39
2023/04/05 14:27:15;;;;;;;;;;;;;;;;;;5014813;28;19969;-41
2023/04/05 14:29:44;;;;;;;;;;;;;;;;;;5014665;28;19915;-40
2023/04/05 14:32:10;;;;;;;;;;;;;;;;;;5014711;28;19910;-41
2023/04/05 14:34:37;;;;;;;;;;;;;;;;;;5014607;28;19910;-41
2023/04/05 14:37:05;;;;;;;;;;;;;;;;;;5014559;28;19914;-40
2023/04/05 14:39:31;;;;;;;;;;;;;;;;;;5014457;28;19952;-41
2023/04/05 14:41:58;;;;;;;;;;;;;;;;;;5014519;28;20007;-41
2023/04/05 14:44:26;;;;;;;;;;;;;;;;;;5014326;28;19970;-41
2023/04/05 14:46:53;;;;;;;;;;;;;;;;;;5014393;28;19914;-40
2023/04/05 14:49:20;;;;;;;;;;;;;;;;;;5014476;28;20386;-39
2023/04/05 14:51:46;;;;;;;;;;;;;;;;;;5013997;28;19933;-40
2023/04/05 14:54:13;;;;;;;;;;;;;;;;;;5014273;28;20291;-40
2023/04/05 14:56:39;;;;;;;;;;;;;;;;;;5014220;28;20004;-40
2023/04/05 14:59:05;;;;;;;;;;;;;;;;;;5014113;28;19914;-41
2023/04/05 15:01:32;;;;;;;;;;;;;;;;;;5014116;28;19932;-40
2023/04/05 15:03:58;;;;;;;;;;;;;;;;;;5014009;28;20295;-41
2023/04/05 15:06:25;;;;;;;;;;;;;;;;;;5014054;28;20413;-41
2023/04/05 15:08:51;;;;;;;;;;;;;;;;;;5013945;28;19909;-38
2023/04/05 15:11:18;;;;;;;;;;;;;;;;;;5013971;28;20038;-40
2023/04/05 15:13:44;;;;;;;;;;;;;;;;;;5013808;28;19979;-41
2023/04/05 15:16:10;;;;;;;;;;;;;;;;;;5013800;28;20303;-40
2023/04/05 15:18:37;;;;;;;;;;;;;;;;;;5013677;28;19921;-39
2023/04/05 15:21:04;;;;;;;;;;;;;;;;;;5013742;28;20330;-39
2023/04/05 15:23:30;;;;;;;;;;;;;;;;;;5013641;28;19917;-40
2023/04/05 15:25:56;;;;;;;;;;;;;;;;;;5013666;28;19976;-40
2023/04/05 15:28:23;;;;;;;;;;;;;;;;;;5013589;28;19976;-41
2023/04/05 15:30:50;;;;;;;;;;;;;;;;;;5013581;28;19910;-40
2023/04/05 15:33:16;;;;;;;;;;;;;;;;;;5013576;28;19923;-38
2023/04/05 15:35:42;;;;;;;;;;;;;;;;;;5013359;28;19924;-41
2023/04/05 15:38:09;;;;;;;;;;;;;;;;;;5013312;28;19952;-41
2023/04/05 15:40:35;;;;;;;;;;;;;;;;;;5013447;28;19933;-41
2023/04/05 15:43:02;;;;;;;;;;;;;;;;;;5013373;28;19914;-41
2023/04/05 15:45:28;;;;;;;;;;;;;;;;;;5028470;28;19917;-40
2023/04/05 15:47:55;;;;;;;;;;;;;;;;;;5013232;28;20272;-39
2023/04/05 15:50:21;;;;;;;;;;;;;;;;;;5013070;28;19917;-39
2023/04/05 15:52:48;;;;;;;;;;;;;;;;;;5013182;28;20319;-41
2023/04/05 15:55:14;;;;;;;;;;;;;;;;;;5013050;28;20291;-40
2023/04/05 15:57:41;;;;;;;;;;;;;;;;;;5013060;28;20338;-41
2023/04/05 16:00:07;;;;;;;;;;;;;;;;;;5012954;28;19913;-40
2023/04/05 16:02:34;;;;;;;;;;;;;;;;;;5012900;28;19917;-40
2023/04/05 16:05:00;;;;;;;;;;;;;;;;;;5012923;28;19920;-38
2023/04/05 16:07:26;;;;;;;;;;;;;;;;;;5012957;28;19940;-40
2023/04/05 16:09:53;;;;;;;;;;;;;;;;;;5012900;28;19914;-39
2023/04/05 16:12:19;;;;;;;;;;;;;;;;;;5012932;28;19916;-38
2023/04/05 16:14:46;;;;;;;;;;;;;;;;;;5012798;28;20074;-40
2023/04/05 16:17:12;;;;;;;;;;;;;;;;;;5012818;28;20357;-40
2023/04/05 16:19:38;;;;;;;;;;;;;;;;;;5012677;28;19909;-41
2023/04/05 16:22:05;;;;;;;;;;;;;;;;;;5012698;28;19916;-40
2023/04/05 16:24:32;;;;;;;;;;;;;;;;;;5012662;28;20355;-40
2023/04/05 16:26:58;;;;;;;;;;;;;;;;;;5012602;28;19913;-39
2023/04/05 16:29:24;;;;;;;;;;;;;;;;;;5012558;28;19917;-40
2023/04/05 16:31:51;;;;;;;;;;;;;;;;;;5012561;28;19916;-40
2023/04/05 16:34:17;;;;;;;;;;;;;;;;;;5012566;28;19910;-41
2023/04/05 16:36:44;;;;;;;;;;;;;;;;;;5012569;28;19979;-40
2023/04/05 16:39:10;;;;;;;;;;;;;;;;;;5012397;28;19948;-40
2023/04/05 16:41:36;;;;;;;;;;;;;;;;;;5012478;28;19914;-40
2023/04/05 16:44:03;;;;;;;;;;;;;;;;;;5012455;28;19928;-41